createdAt,value
2022-08-27T00:00:21.912Z,1.92
2022-08-27T00:02:48.816Z,2.35
2022-08-27T00:05:17.794Z,1.98
2022-08-27T00:07:45.624Z,2.08
2022-08-27T00:10:17.207Z,1.70
2022-08-27T00:12:44.025Z,1.65
2022-08-27T00:15:12.888Z,1.60
2022-08-27T00:17:45.795Z,1.30
2022-08-27T00:20:16.660Z,1.52
2022-08-27T00:22:43.508Z,1.58
2022-08-27T00:25:11.089Z,2.10
2022-08-27T00:27:38.657Z,2.05
2022-08-27T00:30:07.093Z,2.53
2022-08-27T00:32:35.205Z,1.60
2022-08-27T00:35:02.198Z,1.60
2022-08-27T00:37:28.996Z,3.00
2022-08-27T00:39:55.784Z,2.65
2022-08-27T00:42:22.616Z,1.88
2022-08-27T00:44:49.419Z,1.92
2022-08-27T00:47:19.750Z,1.88
2022-08-27T00:49:51.288Z,2.20
2022-08-27T00:52:28.847Z,1.92
2022-08-27T00:55:00.030Z,1.88
2022-08-27T00:57:27.338Z,3.28
2022-08-27T00:59:55.251Z,2.08
2022-08-27T01:02:22.097Z,1.85
2022-08-27T01:04:53.649Z,2.13
2022-08-27T01:07:21.058Z,1.95
2022-08-27T01:09:50.121Z,1.83
2022-08-27T01:12:18.455Z,2.00
2022-08-27T01:14:46.523Z,2.20
2022-08-27T01:17:14.641Z,1.73
2022-08-27T01:19:44.704Z,2.13
2022-08-27T01:22:23.419Z,2.00
2022-08-27T01:24:54.617Z,1.70
2022-08-27T01:27:25.109Z,1.85
2022-08-27T01:29:52.391Z,2.08
2022-08-27T01:32:21.601Z,1.63
2022-08-27T01:34:48.667Z,1.88
2022-08-27T01:37:16.654Z,2.20
2022-08-27T01:39:52.854Z,1.90
2022-08-27T01:42:23.878Z,2.17
2022-08-27T01:44:53.762Z,1.65
2022-08-27T01:47:22.601Z,1.83
2022-08-27T01:49:58.483Z,2.08
2022-08-27T01:52:29.169Z,1.80
2022-08-27T01:54:57.414Z,1.75
2022-08-27T01:57:26.212Z,1.90
2022-08-27T01:59:53.233Z,1.83
2022-08-27T02:02:20.048Z,2.42
2022-08-27T02:04:46.834Z,2.30
2022-08-27T02:07:13.616Z,1.83
2022-08-27T02:09:40.345Z,2.28
2022-08-27T02:12:08.869Z,2.47
2022-08-27T02:14:35.714Z,2.55
2022-08-27T02:17:02.634Z,2.13
2022-08-27T02:19:29.464Z,1.90
2022-08-27T02:21:56.250Z,2.53
2022-08-27T02:24:22.959Z,2.55
2022-08-27T02:26:49.756Z,2.40
2022-08-27T02:29:17.874Z,2.92
2022-08-27T02:31:44.707Z,2.28
2022-08-27T02:34:11.505Z,2.30
2022-08-27T02:36:38.261Z,2.25
2022-08-27T02:39:05.457Z,2.15
2022-08-27T02:41:32.214Z,1.85
2022-08-27T02:43:58.982Z,2.03
2022-08-27T02:46:29.417Z,2.47
2022-08-27T02:48:56.193Z,2.70
2022-08-27T02:51:23.015Z,1.90
2022-08-27T02:53:50.152Z,1.95
2022-08-27T02:56:17.275Z,2.45
2022-08-27T02:58:49.054Z,1.95
2022-08-27T03:01:15.950Z,2.28
2022-08-27T03:03:44.176Z,2.10
2022-08-27T03:06:11.245Z,2.33
2022-08-27T03:08:53.380Z,2.10
2022-08-27T03:11:20.507Z,2.33
2022-08-27T03:13:47.254Z,1.95
2022-08-27T03:16:14.052Z,2.30
2022-08-27T03:18:40.856Z,2.10
2022-08-27T03:21:09.155Z,2.03
2022-08-27T03:23:35.969Z,2.38
2022-08-27T03:26:05.148Z,2.63
2022-08-27T03:28:34.601Z,2.10
2022-08-27T03:31:04.399Z,2.90
2022-08-27T03:33:33.808Z,3.08
2022-08-27T03:36:00.552Z,2.70
2022-08-27T03:38:28.661Z,2.70
2022-08-27T03:40:55.420Z,2.38
2022-08-27T03:43:23.141Z,2.33
2022-08-27T03:46:00.553Z,3.05
2022-08-27T03:48:29.882Z,2.30
2022-08-27T03:50:56.606Z,2.28
2022-08-27T03:53:23.398Z,1.85
2022-08-27T03:55:51.476Z,2.53
2022-08-27T03:58:18.229Z,3.03
2022-08-27T04:00:45.234Z,2.40
2022-08-27T04:03:13.619Z,2.45
2022-08-27T04:05:40.902Z,2.05
2022-08-27T04:08:08.634Z,1.92
2022-08-27T04:10:38.480Z,2.10
2022-08-27T04:13:06.575Z,1.95
2022-08-27T04:15:33.408Z,2.40
2022-08-27T04:18:00.214Z,2.83
2022-08-27T04:20:35.797Z,2.05
2022-08-27T04:23:02.964Z,2.10
2022-08-27T04:25:29.695Z,2.50
2022-08-27T04:27:56.458Z,2.95
2022-08-27T04:30:24.610Z,2.35
2022-08-27T04:32:51.505Z,2.22
2022-08-27T04:35:18.454Z,2.28
2022-08-27T04:37:45.244Z,2.53
2022-08-27T04:40:12.411Z,2.42
2022-08-27T04:42:39.204Z,2.90
2022-08-27T04:45:06.689Z,3.10
2022-08-27T04:47:34.887Z,2.55
2022-08-27T04:50:01.714Z,2.42
2022-08-27T04:52:32.372Z,2.58
2022-08-27T04:54:59.135Z,2.35
2022-08-27T04:57:25.938Z,2.47
2022-08-27T04:59:52.678Z,2.25
2022-08-27T05:02:19.406Z,2.72
2022-08-27T05:04:47.489Z,2.83
2022-08-27T05:07:14.301Z,3.35
2022-08-27T05:09:41.803Z,2.88
2022-08-27T05:12:08.893Z,2.25
2022-08-27T05:14:35.665Z,2.08
2022-08-27T05:17:02.379Z,2.20
2022-08-27T05:19:29.167Z,2.47
2022-08-27T05:21:57.274Z,2.13
2022-08-27T05:24:24.219Z,2.72
2022-08-27T05:26:51.134Z,3.20
2022-08-27T05:29:18.233Z,2.70
2022-08-27T05:31:45.077Z,2.45
2022-08-27T05:34:11.812Z,3.17
2022-08-27T05:36:44.235Z,2.40
2022-08-27T05:39:17.311Z,3.20
2022-08-27T05:41:44.061Z,2.63
2022-08-27T05:44:37.217Z,3.08
2022-08-27T05:46:57.780Z,2.15
2022-08-27T05:49:24.525Z,3.15
2022-08-27T05:51:51.261Z,2.95
2022-08-27T05:54:19.590Z,2.78
2022-08-27T05:56:47.614Z,3.13
2022-08-27T05:59:14.994Z,3.15
2022-08-27T06:01:44.866Z,3.75
2022-08-27T06:04:17.815Z,3.13
2022-08-27T06:06:46.155Z,3.53
2022-08-27T06:09:15.175Z,3.45
2022-08-27T06:11:43.353Z,3.20
2022-08-27T06:14:10.756Z,3.72
2022-08-27T06:16:38.524Z,3.28
2022-08-27T06:19:06.534Z,3.53
2022-08-27T06:21:33.511Z,3.42
2022-08-27T06:24:00.411Z,3.65
2022-08-27T06:26:27.938Z,3.30
2022-08-27T06:28:56.036Z,3.13
2022-08-27T06:31:24.444Z,3.25
2022-08-27T06:33:52.624Z,4.00
2022-08-27T06:36:22.108Z,3.42
2022-08-27T06:38:49.553Z,3.50
2022-08-27T06:41:23.880Z,3.40
2022-08-27T06:43:51.822Z,3.08
2022-08-27T06:46:24.062Z,3.70
2022-08-27T06:48:52.177Z,3.50
2022-08-27T06:51:21.567Z,3.63
2022-08-27T06:53:48.899Z,3.38
2022-08-27T06:56:17.112Z,4.47
2022-08-27T06:58:44.787Z,4.22
2022-08-27T07:01:13.808Z,4.65
2022-08-27T07:03:42.214Z,4.03
2022-08-27T07:06:09.622Z,3.60
2022-08-27T07:08:36.494Z,3.70
2022-08-27T07:11:03.454Z,3.58
2022-08-27T07:13:30.222Z,4.03
2022-08-27T07:15:57.581Z,6.50
2022-08-27T07:18:27.355Z,3.50
2022-08-27T07:20:56.065Z,4.50
2022-08-27T07:23:22.823Z,3.72
2022-08-27T07:25:49.546Z,3.42
2022-08-27T07:28:16.590Z,3.85
2022-08-27T07:30:43.390Z,3.90
2022-08-27T07:33:10.337Z,4.47
2022-08-27T07:35:37.180Z,4.20
2022-08-27T07:38:05.299Z,5.22
2022-08-27T07:40:32.666Z,4.20
2022-08-27T07:42:59.489Z,4.53
2022-08-27T07:45:28.335Z,3.83
2022-08-27T07:47:55.264Z,4.07
2022-08-27T07:50:22.672Z,4.40
2022-08-27T07:52:49.525Z,4.78
2022-08-27T07:55:18.317Z,4.35
2022-08-27T07:57:45.157Z,3.42
2022-08-27T08:00:12.355Z,4.70
2022-08-27T08:02:39.635Z,3.97
2022-08-27T08:05:06.994Z,3.63
2022-08-27T08:07:34.553Z,4.00
2022-08-27T08:10:01.424Z,4.35
2022-08-27T08:12:29.531Z,4.53
2022-08-27T08:14:56.307Z,3.90
2022-08-27T08:17:23.141Z,3.70
2022-08-27T08:20:08.549Z,4.20
2022-08-27T08:22:36.702Z,3.17
2022-08-27T08:25:04.127Z,4.25
2022-08-27T08:27:32.469Z,3.80
2022-08-27T08:29:59.474Z,3.20
2022-08-27T08:32:26.464Z,3.30
2022-08-27T08:34:53.202Z,3.00
2022-08-27T08:37:19.903Z,3.97
2022-08-27T08:39:46.650Z,4.00
2022-08-27T08:42:28.099Z,3.05
2022-08-27T08:44:57.745Z,3.45
2022-08-27T08:47:29.054Z,4.85
2022-08-27T08:50:03.093Z,3.67
2022-08-27T08:52:42.831Z,3.38
2022-08-27T08:55:17.526Z,3.97
2022-08-27T08:57:51.879Z,3.03
2022-08-27T09:00:19.961Z,3.13
2022-08-27T09:02:51.902Z,3.13
2022-08-27T09:05:18.851Z,2.63
2022-08-27T09:07:50.681Z,2.92
2022-08-27T09:10:24.768Z,3.05
2022-08-27T09:15:24.652Z,2.97
2022-08-27T09:17:51.529Z,2.80
2022-08-27T09:20:25.717Z,3.45
2022-08-27T09:23:01.761Z,3.00
2022-08-27T09:25:31.950Z,3.13
2022-08-27T09:28:00.930Z,2.72
2022-08-27T09:30:32.326Z,3.00
2022-08-27T09:33:01.422Z,2.45
2022-08-27T09:35:38.821Z,2.55
2022-08-27T09:38:05.558Z,2.67
2022-08-27T09:40:39.084Z,3.30
2022-08-27T09:43:18.014Z,3.22
2022-08-27T09:45:49.103Z,3.30
2022-08-27T09:48:19.715Z,2.60
2022-08-27T09:50:49.230Z,2.70
2022-08-27T09:53:20.301Z,2.47
2022-08-27T09:55:49.510Z,2.72
2022-08-27T09:58:20.214Z,2.60
2022-08-27T10:00:58.154Z,2.75
2022-08-27T10:03:25.010Z,2.17
2022-08-27T10:05:52.137Z,3.08
2022-08-27T10:08:24.688Z,2.42
2022-08-27T10:10:55.225Z,2.15
2022-08-27T10:13:26.695Z,2.97
2022-08-27T10:16:06.778Z,3.20
2022-08-27T10:18:42.178Z,2.42
2022-08-27T10:21:15.602Z,2.88
2022-08-27T10:23:51.587Z,2.38
2022-08-27T10:26:24.539Z,2.42
2022-08-27T10:29:02.975Z,2.40
2022-08-27T10:31:36.410Z,2.60
2022-08-27T10:34:17.732Z,2.15
2022-08-27T10:36:54.399Z,3.20
2022-08-27T10:39:33.453Z,2.10
2022-08-27T10:42:12.689Z,2.60
2022-08-27T10:44:50.682Z,2.83
2022-08-27T10:47:35.761Z,2.60
2022-08-27T10:50:07.587Z,2.20
2022-08-27T10:52:41.143Z,2.20
2022-08-27T10:55:14.001Z,2.30
2022-08-27T10:58:11.129Z,2.30
2022-08-27T11:00:45.301Z,1.75
2022-08-27T11:05:46.408Z,2.47
2022-08-27T11:08:17.330Z,2.40
2022-08-27T11:10:47.489Z,2.05
2022-08-27T11:13:23.295Z,1.80
2022-08-27T11:15:53.733Z,2.10
2022-08-27T11:18:31.478Z,1.70
2022-08-27T11:21:02.547Z,1.95
2022-08-27T11:23:37.252Z,2.05
2022-08-27T11:26:05.686Z,2.15
2022-08-27T11:28:37.670Z,2.17
2022-08-27T11:31:11.630Z,1.90
2022-08-27T11:36:55.085Z,1.40
2022-08-27T11:39:36.494Z,1.88
2022-08-27T11:42:09.763Z,2.05
2022-08-27T11:44:43.211Z,2.33
2022-08-27T11:47:13.362Z,1.83
2022-08-27T11:49:47.605Z,2.53
2022-08-27T11:52:24.263Z,1.98
2022-08-27T11:54:55.070Z,2.38
2022-08-27T11:57:32.107Z,1.98
2022-08-27T12:00:10.744Z,2.10
2022-08-27T12:13:37.830Z,1.73
2022-08-27T12:16:15.795Z,2.00
2022-08-27T12:19:01.026Z,2.08
2022-08-27T12:21:40.377Z,1.77
2022-08-27T12:24:34.832Z,2.28
2022-08-27T12:27:14.567Z,1.70
2022-08-27T12:29:50.203Z,2.13
2022-08-27T12:32:27.662Z,2.15
2022-08-27T12:35:03.767Z,2.15
2022-08-27T12:37:34.308Z,2.22
2022-08-27T12:40:06.905Z,1.92
2022-08-27T12:42:33.679Z,2.00
2022-08-27T12:45:01.736Z,1.73
2022-08-27T12:47:32.750Z,2.45
2022-08-27T12:50:01.029Z,2.13
2022-08-27T12:53:05.300Z,2.17
2022-08-27T12:55:42.667Z,2.15
2022-08-27T12:58:15.953Z,2.17
2022-08-27T13:01:03.150Z,2.63
2022-08-27T13:03:34.274Z,2.42
2022-08-27T13:06:01.195Z,1.65
2022-08-27T13:08:29.940Z,2.55
2022-08-27T13:11:06.914Z,2.42
2022-08-27T13:13:33.774Z,1.90
2022-08-27T13:16:05.394Z,3.22
2022-08-27T13:18:32.712Z,1.88
2022-08-27T13:21:12.238Z,1.67
2022-08-27T13:23:44.796Z,2.65
2022-08-27T13:26:12.317Z,2.40
2022-08-27T13:28:40.959Z,2.25
2022-08-27T13:31:10.644Z,2.17
2022-08-27T13:33:39.596Z,2.97
2022-08-27T13:36:07.072Z,2.20
2022-08-27T13:38:37.159Z,2.65
2022-08-27T13:41:06.994Z,2.83
2022-08-27T13:43:36.400Z,1.95
2022-08-27T13:46:06.899Z,2.20
2022-08-27T13:48:39.469Z,2.22
2022-08-27T13:51:06.519Z,2.40
2022-08-27T13:53:34.456Z,1.98
2022-08-27T13:56:01.237Z,2.13
2022-08-27T13:58:30.451Z,1.80
2022-08-27T14:01:09.384Z,2.58
2022-08-27T14:03:47.611Z,2.88
2022-08-27T14:06:23.577Z,2.70
2022-08-27T14:08:50.334Z,2.67
2022-08-27T14:11:23.525Z,1.70
2022-08-27T14:13:51.418Z,1.27
2022-08-27T14:16:25.793Z,3.00
2022-08-27T14:19:02.199Z,3.00
2022-08-27T14:21:29.239Z,1.67
2022-08-27T14:23:56.292Z,2.30
2022-08-27T14:26:23.262Z,2.20
2022-08-27T14:28:49.993Z,2.47
2022-08-27T14:31:16.996Z,2.10
2022-08-27T14:33:44.197Z,1.80
2022-08-27T14:36:12.393Z,2.25
2022-08-27T14:38:42.382Z,2.75
2022-08-27T14:41:09.283Z,2.50
2022-08-27T14:43:36.656Z,2.53
2022-08-27T14:46:04.358Z,2.70
2022-08-27T14:48:33.479Z,2.55
2022-08-27T14:51:11.339Z,2.40
2022-08-27T14:53:39.529Z,2.60
2022-08-27T14:56:06.717Z,2.35
2022-08-27T14:58:33.485Z,2.80
2022-08-27T15:01:00.324Z,2.63
2022-08-27T15:03:27.100Z,2.80
2022-08-27T15:05:55.069Z,2.03
2022-08-27T15:08:25.775Z,2.33
2022-08-27T15:10:56.055Z,2.80
2022-08-27T15:13:22.887Z,2.78
2022-08-27T15:15:49.661Z,2.55
2022-08-27T15:18:19.163Z,1.80
2022-08-27T15:20:46.058Z,2.67
2022-08-27T15:23:14.090Z,2.35
2022-08-27T15:25:41.821Z,2.50
2022-08-27T15:28:10.083Z,2.13
2022-08-27T15:30:37.077Z,1.88
2022-08-27T15:33:05.648Z,2.20
2022-08-27T15:35:32.774Z,2.88
2022-08-27T15:37:59.921Z,1.85
2022-08-27T15:40:31.176Z,3.15
2022-08-27T15:43:00.762Z,2.80
2022-08-27T15:45:29.407Z,2.33
2022-08-27T15:47:56.504Z,3.28
2022-08-27T15:50:24.098Z,2.10
2022-08-27T15:52:54.689Z,3.05
2022-08-27T15:55:23.728Z,2.33
2022-08-27T15:57:50.766Z,2.35
2022-08-27T16:00:18.388Z,2.13
2022-08-27T16:02:46.959Z,2.63
2022-08-27T16:05:14.971Z,3.00
2022-08-27T16:07:42.731Z,3.20
2022-08-27T16:10:11.485Z,3.05
2022-08-27T16:12:38.332Z,2.75
2022-08-27T16:15:06.878Z,3.88
2022-08-27T16:17:34.284Z,3.70
2022-08-27T16:20:03.453Z,2.95
2022-08-27T16:22:30.220Z,3.88
2022-08-27T16:24:56.958Z,3.47
2022-08-27T16:27:23.716Z,3.20
2022-08-27T16:29:50.454Z,2.88
2022-08-27T16:32:18.916Z,3.25
2022-08-27T16:34:46.546Z,2.67
2022-08-27T16:37:14.980Z,3.40
2022-08-27T16:39:41.867Z,5.45
2022-08-27T16:42:09.721Z,2.50
2022-08-27T16:44:37.206Z,3.15
2022-08-27T16:47:04.617Z,3.03
2022-08-27T16:49:31.509Z,2.95
2022-08-27T16:51:58.235Z,3.47
2022-08-27T16:54:27.650Z,3.33
2022-08-27T16:56:54.677Z,3.55
2022-08-27T16:59:21.395Z,4.85
2022-08-27T17:01:51.121Z,3.30
2022-08-27T17:04:27.661Z,3.72
2022-08-27T17:06:55.348Z,3.42
2022-08-27T17:09:23.151Z,3.20
2022-08-27T17:11:55.188Z,2.95
2022-08-27T17:14:22.000Z,3.13
2022-08-27T17:16:48.805Z,3.13
2022-08-27T17:19:16.851Z,2.65
2022-08-27T17:21:45.204Z,2.70
2022-08-27T17:24:12.972Z,3.10
2022-08-27T17:26:40.106Z,3.15
2022-08-27T17:29:08.295Z,3.03
2022-08-27T17:31:38.264Z,2.92
2022-08-27T17:34:06.708Z,3.53
2022-08-27T17:36:34.234Z,3.08
2022-08-27T17:39:01.617Z,2.85
2022-08-27T17:41:33.958Z,2.85
2022-08-27T17:44:03.625Z,3.47
2022-08-27T17:46:31.789Z,2.88
2022-08-27T17:48:58.875Z,3.38
2022-08-27T17:51:25.819Z,2.88
2022-08-27T17:54:00.317Z,2.85
2022-08-27T17:56:28.150Z,2.92
2022-08-27T17:58:55.224Z,2.45
2022-08-27T18:01:24.842Z,2.53
2022-08-27T18:03:57.322Z,2.85
2022-08-27T18:06:24.514Z,3.13
2022-08-27T18:08:51.392Z,3.05
2022-08-27T18:11:18.550Z,3.20
2022-08-27T18:13:47.289Z,2.63
2022-08-27T18:16:14.121Z,3.30
2022-08-27T18:18:41.303Z,2.58
2022-08-27T18:21:10.129Z,3.65
2022-08-27T18:23:37.056Z,2.22
2022-08-27T18:26:05.313Z,2.67
2022-08-27T18:28:32.214Z,2.80
2022-08-27T18:30:59.083Z,2.92
2022-08-27T18:33:32.366Z,2.80
2022-08-27T18:35:59.125Z,2.40
2022-08-27T18:38:27.504Z,2.35
2022-08-27T18:40:54.647Z,2.65
2022-08-27T18:43:25.299Z,2.67
2022-08-27T18:45:52.097Z,2.80
2022-08-27T18:48:21.390Z,2.78
2022-08-27T18:50:51.125Z,3.25
2022-08-27T18:53:19.237Z,3.00
2022-08-27T18:55:47.738Z,3.10
2022-08-27T18:58:14.642Z,3.17
2022-08-27T19:00:42.762Z,2.60
2022-08-27T19:03:10.669Z,3.10
2022-08-27T19:05:37.486Z,3.45
2022-08-27T19:08:04.607Z,2.90
2022-08-27T19:10:31.447Z,3.08
2022-08-27T19:12:59.566Z,2.83
2022-08-27T19:15:26.312Z,2.65
2022-08-27T19:17:57.279Z,2.58
2022-08-27T19:20:24.086Z,3.20
2022-08-27T19:22:50.844Z,2.47
2022-08-27T19:25:18.436Z,2.92
2022-08-27T19:27:46.487Z,2.35
2022-08-27T19:30:16.115Z,2.35
2022-08-27T19:32:43.578Z,2.72
2022-08-27T19:35:10.612Z,2.80
2022-08-27T19:37:42.333Z,2.47
2022-08-27T19:40:10.583Z,2.30
2022-08-27T19:42:38.613Z,2.92
2022-08-27T19:45:06.448Z,4.00
2022-08-27T19:47:36.014Z,3.28
2022-08-27T19:50:03.008Z,3.30
2022-08-27T19:52:29.775Z,3.90
2022-08-27T19:55:13.178Z,3.30
2022-08-27T19:57:40.637Z,2.70
2022-08-27T20:00:09.544Z,3.28
2022-08-27T20:02:38.200Z,3.05
2022-08-27T20:05:21.981Z,3.47
2022-08-27T20:07:49.630Z,2.88
2022-08-27T20:10:16.795Z,2.70
2022-08-27T20:12:43.902Z,3.63
2022-08-27T20:15:11.438Z,2.85
2022-08-27T20:17:40.800Z,3.38
2022-08-27T20:20:08.846Z,3.58
2022-08-27T20:22:35.702Z,2.42
2022-08-27T20:25:02.494Z,2.65
2022-08-27T20:27:29.215Z,2.67
2022-08-27T20:29:56.074Z,2.85
2022-08-27T20:32:25.740Z,1.85
2022-08-27T20:34:57.607Z,3.30
2022-08-27T20:37:24.424Z,2.50
2022-08-27T20:39:51.181Z,2.47
2022-08-27T20:42:18.043Z,2.00
2022-08-27T20:44:44.763Z,1.92
2022-08-27T20:47:11.637Z,2.17
2022-08-27T20:49:38.730Z,2.50
2022-08-27T20:52:11.528Z,2.33
2022-08-27T20:54:38.846Z,1.80
2022-08-27T20:57:05.756Z,2.17
2022-08-27T20:59:32.794Z,2.30
2022-08-27T21:02:04.977Z,1.98
2022-08-27T21:04:35.984Z,2.20
2022-08-27T21:07:02.790Z,1.90
2022-08-27T21:09:30.908Z,2.03
2022-08-27T21:11:57.742Z,1.80
2022-08-27T21:14:24.600Z,1.70
2022-08-27T21:16:54.699Z,1.98
2022-08-27T21:19:21.855Z,1.60
2022-08-27T21:21:48.636Z,2.20
2022-08-27T21:24:15.456Z,1.90
2022-08-27T21:26:43.593Z,1.75
2022-08-27T21:29:10.514Z,1.70
2022-08-27T21:31:37.332Z,1.98
2022-08-27T21:34:04.276Z,1.80
2022-08-27T21:36:31.054Z,2.13
2022-08-27T21:38:57.822Z,2.13
2022-08-27T21:41:24.632Z,2.15
2022-08-27T21:43:52.761Z,1.77
2022-08-27T21:46:20.185Z,1.85
2022-08-27T21:48:47.098Z,2.30
2022-08-27T21:51:24.260Z,2.20
2022-08-27T21:53:51.507Z,2.10
2022-08-27T21:56:18.251Z,2.20
2022-08-27T21:58:45.050Z,2.22
2022-08-27T22:01:13.174Z,2.58
2022-08-27T22:03:42.211Z,2.20
2022-08-27T22:06:12.056Z,2.17
2022-08-27T22:08:39.308Z,2.10
2022-08-27T22:11:06.248Z,2.50
2022-08-27T22:13:33.589Z,2.20
2022-08-27T22:16:00.415Z,2.22
2022-08-27T22:18:28.768Z,2.00
2022-08-27T22:20:56.574Z,2.38
2022-08-27T22:23:23.626Z,2.00
2022-08-27T22:25:50.371Z,1.65
2022-08-27T22:28:18.486Z,2.40
2022-08-27T22:30:45.788Z,1.85
2022-08-27T22:33:13.368Z,2.10
2022-08-27T22:35:42.088Z,2.20
2022-08-27T22:38:09.429Z,2.53
2022-08-27T22:40:37.051Z,2.13
2022-08-27T22:43:04.125Z,2.00
2022-08-27T22:45:31.269Z,2.55
2022-08-27T22:47:58.119Z,2.75
2022-08-27T22:50:24.896Z,2.42
2022-08-27T22:52:53.630Z,2.42
2022-08-27T22:55:23.264Z,2.60
2022-08-27T22:57:51.505Z,2.47
2022-08-27T23:00:21.245Z,2.08
2022-08-27T23:02:47.979Z,1.95
2022-08-27T23:05:15.911Z,2.42
2022-08-27T23:07:43.390Z,2.58
2022-08-27T23:10:14.130Z,2.78
2022-08-27T23:12:40.849Z,3.00
2022-08-27T23:15:14.843Z,2.50
2022-08-27T23:17:41.616Z,2.15
2022-08-27T23:20:09.957Z,2.42
2022-08-27T23:22:37.706Z,2.33
2022-08-27T23:25:05.543Z,2.50
2022-08-27T23:27:33.669Z,2.67
2022-08-27T23:30:02.989Z,2.72
2022-08-27T23:32:30.146Z,2.45
2022-08-27T23:34:57.314Z,2.53
2022-08-27T23:37:24.298Z,2.50
2022-08-27T23:39:51.341Z,2.38
2022-08-27T23:42:18.296Z,2.40
2022-08-27T23:44:47.166Z,2.30
2022-08-27T23:47:14.122Z,3.17
2022-08-27T23:49:41.315Z,2.90
2022-08-27T23:52:08.049Z,2.65
2022-08-27T23:54:34.808Z,2.83
2022-08-27T23:57:01.627Z,3.10
2022-08-27T23:59:30.460Z,3.17
